createdAt,value
2022-08-19T00:01:42.932Z,37.72
2022-08-19T00:04:16.416Z,35.17
2022-08-19T00:06:44.855Z,35.05
2022-08-19T00:09:13.524Z,33.47
2022-08-19T00:11:40.568Z,36.80
2022-08-19T00:14:10.621Z,42.80
2022-08-19T00:16:39.610Z,34.58
2022-08-19T00:19:06.691Z,38.25
2022-08-19T00:21:33.278Z,39.95
2022-08-19T00:24:00.498Z,51.67
2022-08-19T00:26:28.761Z,42.63
2022-08-19T00:28:56.232Z,43.17
2022-08-19T00:31:23.060Z,42.38
2022-08-19T00:33:52.629Z,45.47
2022-08-19T00:36:19.129Z,44.55
2022-08-19T00:38:46.223Z,47.25
2022-08-19T00:41:22.084Z,43.72
2022-08-19T00:44:06.548Z,46.00
2022-08-19T00:46:34.673Z,48.63
2022-08-19T00:49:13.418Z,42.72
2022-08-19T00:51:40.022Z,46.15
2022-08-19T00:54:06.588Z,52.78
2022-08-19T00:56:33.689Z,50.95
2022-08-19T00:59:00.734Z,52.13
2022-08-19T01:01:27.294Z,48.92
2022-08-19T01:03:57.641Z,47.33
2022-08-19T01:06:26.464Z,47.17
2022-08-19T01:08:54.329Z,51.08
2022-08-19T01:11:20.831Z,49.17
2022-08-19T01:13:49.907Z,50.58
2022-08-19T01:16:18.712Z,50.00
2022-08-19T01:18:45.765Z,47.05
2022-08-19T01:21:47.173Z,46.58
2022-08-19T01:24:13.668Z,63.97
2022-08-19T01:26:43.801Z,51.58
2022-08-19T01:29:11.533Z,51.70
2022-08-19T01:31:40.295Z,55.30
2022-08-19T01:34:08.564Z,49.83
2022-08-19T01:36:47.991Z,53.55
2022-08-19T01:39:18.553Z,50.65
2022-08-19T01:41:45.055Z,51.33
2022-08-19T01:44:18.447Z,48.30
2022-08-19T01:46:48.449Z,54.42
2022-08-19T01:49:16.411Z,54.88
2022-08-19T01:51:42.909Z,47.22
2022-08-19T01:54:11.362Z,54.88
2022-08-19T01:56:39.532Z,54.33
2022-08-19T01:59:11.506Z,50.72
2022-08-19T02:01:38.099Z,64.80
2022-08-19T02:04:04.705Z,50.95
2022-08-19T02:06:31.180Z,53.45
2022-08-19T02:08:58.343Z,50.13
2022-08-19T02:11:34.669Z,50.25
2022-08-19T02:14:03.988Z,55.00
2022-08-19T02:16:31.590Z,56.65
2022-08-19T02:19:01.335Z,56.78
2022-08-19T02:21:29.043Z,54.25
2022-08-19T02:23:56.301Z,52.80
2022-08-19T02:26:23.226Z,59.38
2022-08-19T02:28:49.757Z,52.65
2022-08-19T02:31:19.978Z,64.63
2022-08-19T02:33:47.735Z,57.78
2022-08-19T02:36:16.348Z,60.20
2022-08-19T02:38:54.285Z,57.45
2022-08-19T02:41:33.921Z,60.38
2022-08-19T02:44:29.024Z,55.55
2022-08-19T02:46:51.734Z,61.80
2022-08-19T02:49:19.321Z,59.10
2022-08-19T02:51:46.879Z,65.18
2022-08-19T02:54:14.394Z,64.40
2022-08-19T02:56:42.338Z,67.40
2022-08-19T02:59:11.214Z,62.15
2022-08-19T03:01:41.203Z,66.15
2022-08-19T03:04:09.987Z,62.13
2022-08-19T03:06:38.829Z,69.38
2022-08-19T03:09:05.352Z,86.63
2022-08-19T03:11:33.204Z,61.45
2022-08-19T03:14:01.113Z,65.35
2022-08-19T03:16:30.020Z,60.67
2022-08-19T03:19:00.966Z,67.75
2022-08-19T03:21:32.480Z,72.28
2022-08-19T03:24:04.060Z,67.22
2022-08-19T03:26:34.991Z,68.25
2022-08-19T03:29:05.818Z,78.00
2022-08-19T03:31:44.084Z,78.03
2022-08-19T03:34:21.669Z,70.60
2022-08-19T03:36:48.856Z,74.40
2022-08-19T03:39:16.517Z,66.85
2022-08-19T03:41:46.494Z,71.53
2022-08-19T03:44:17.983Z,67.28
2022-08-19T03:46:47.073Z,67.30
2022-08-19T03:49:14.237Z,72.15
2022-08-19T03:51:42.443Z,69.97
2022-08-19T03:54:12.130Z,70.78
2022-08-19T03:56:40.435Z,73.47
2022-08-19T03:59:10.353Z,72.13
2022-08-19T04:01:36.990Z,71.13
2022-08-19T04:04:04.816Z,76.32
2022-08-19T04:06:34.915Z,70.95
2022-08-19T04:09:04.404Z,78.50
2022-08-19T04:11:43.782Z,75.32
2022-08-19T04:14:13.720Z,74.93
2022-08-19T04:16:40.512Z,75.75
2022-08-19T04:19:07.953Z,77.63
2022-08-19T04:21:34.970Z,73.40
2022-08-19T04:24:01.624Z,74.78
2022-08-19T04:26:35.009Z,75.60
2022-08-19T04:29:09.231Z,94.32
2022-08-19T04:31:38.472Z,81.57
2022-08-19T04:34:07.778Z,82.63
2022-08-19T04:36:36.853Z,84.30
2022-08-19T04:39:09.163Z,79.40
2022-08-19T04:41:54.317Z,87.88
2022-08-19T04:44:21.720Z,85.63
2022-08-19T04:46:51.686Z,95.70
2022-08-19T04:49:25.193Z,89.97
2022-08-19T04:51:55.109Z,97.03
2022-08-19T04:54:38.794Z,101.57
2022-08-19T04:57:09.369Z,88.35
2022-08-19T04:59:37.083Z,94.68
2022-08-19T05:02:04.790Z,92.40
2022-08-19T05:04:32.920Z,98.57
2022-08-19T05:07:01.660Z,95.68
2022-08-19T05:09:55.411Z,97.07
2022-08-19T05:12:16.864Z,96.03
2022-08-19T05:14:46.418Z,93.55
2022-08-19T05:17:30.334Z,97.68
2022-08-19T05:20:17.618Z,92.30
2022-08-19T05:22:46.361Z,98.82
2022-08-19T05:25:16.214Z,91.13
2022-08-19T05:27:43.508Z,94.40
2022-08-19T05:30:11.877Z,90.30
2022-08-19T05:32:39.170Z,90.43
2022-08-19T05:35:06.414Z,76.63
2022-08-19T05:37:32.948Z,84.45
2022-08-19T05:39:59.481Z,82.82
2022-08-19T05:42:26.453Z,77.68
2022-08-19T05:44:52.950Z,78.53
2022-08-19T05:47:21.046Z,82.03
2022-08-19T05:49:50.599Z,86.70
2022-08-19T05:52:18.824Z,74.05
2022-08-19T05:54:48.588Z,85.65
2022-08-19T05:57:19.411Z,83.40
2022-08-19T05:59:49.028Z,89.82
2022-08-19T06:02:15.746Z,89.38
2022-08-19T06:04:43.676Z,81.00
2022-08-19T06:07:12.526Z,88.65
2022-08-19T06:09:40.420Z,78.22
2022-08-19T06:12:07.418Z,84.88
2022-08-19T06:14:40.236Z,84.72
2022-08-19T06:17:09.034Z,85.63
2022-08-19T06:19:40.827Z,72.25
2022-08-19T06:22:08.415Z,78.10
2022-08-19T06:24:36.324Z,78.15
2022-08-19T06:27:04.216Z,67.05
2022-08-19T06:29:31.170Z,79.75
2022-08-19T06:32:00.988Z,78.00
2022-08-19T06:34:29.489Z,73.38
2022-08-19T06:36:57.614Z,68.53
2022-08-19T06:39:27.131Z,70.30
2022-08-19T06:41:58.697Z,65.82
2022-08-19T06:44:27.818Z,67.82
2022-08-19T06:46:55.772Z,68.40
2022-08-19T06:49:23.919Z,67.47
2022-08-19T06:51:51.906Z,62.70
2022-08-19T06:54:20.074Z,62.00
2022-08-19T06:56:47.270Z,68.32
2022-08-19T06:59:17.225Z,73.40
2022-08-19T07:01:49.893Z,77.60
2022-08-19T07:06:45.994Z,84.63
2022-08-19T07:09:21.708Z,90.45
2022-08-19T07:11:50.430Z,103.43
2022-08-19T07:14:20.394Z,111.78
2022-08-19T07:16:50.495Z,115.65
2022-08-19T07:19:19.312Z,124.55
2022-08-19T07:21:50.869Z,121.65
2022-08-19T07:24:18.410Z,120.65
2022-08-19T07:26:45.624Z,120.75
2022-08-19T07:29:12.918Z,124.82
2022-08-19T07:31:40.646Z,129.10
2022-08-19T07:34:12.689Z,134.45
2022-08-19T07:36:42.852Z,134.45
2022-08-19T07:39:14.530Z,138.73
2022-08-19T07:41:41.120Z,154.00
2022-08-19T07:44:09.142Z,137.75
2022-08-19T07:46:39.051Z,138.40
2022-08-19T07:49:07.684Z,137.52
2022-08-19T07:51:36.338Z,133.25
2022-08-19T07:54:04.605Z,130.85
2022-08-19T07:56:32.449Z,122.07
2022-08-19T07:58:58.951Z,121.25
2022-08-19T08:01:28.673Z,120.22
2022-08-19T08:04:16.132Z,111.93
2022-08-19T08:07:01.585Z,105.13
2022-08-19T08:09:35.156Z,104.32
2022-08-19T08:12:33.670Z,105.63
2022-08-19T08:15:08.864Z,93.72
2022-08-19T08:17:49.025Z,88.22
2022-08-19T08:20:18.650Z,87.15
2022-08-19T08:23:05.993Z,78.70
2022-08-19T08:25:34.216Z,78.30
2022-08-19T08:28:01.118Z,66.15
2022-08-19T08:30:31.157Z,53.05
2022-08-19T08:33:00.337Z,64.43
2022-08-19T08:35:29.098Z,80.80
2022-08-19T08:37:56.580Z,85.03
2022-08-19T08:40:27.582Z,84.82
2022-08-19T08:45:42.426Z,77.72
2022-08-19T08:48:24.297Z,58.33
2022-08-19T08:50:54.203Z,69.95
2022-08-19T08:53:29.168Z,62.65
2022-08-19T08:56:01.205Z,60.78
2022-08-19T08:58:57.305Z,56.22
2022-08-19T09:01:24.087Z,60.50
2022-08-19T09:03:56.937Z,59.13
2022-08-19T09:06:45.034Z,62.40
2022-08-19T09:09:36.209Z,52.85
2022-08-19T09:12:49.849Z,53.50
2022-08-19T09:15:19.474Z,78.22
2022-08-19T09:17:55.786Z,81.82
2022-08-19T09:20:26.293Z,89.78
2022-08-19T09:22:52.924Z,91.50
2022-08-19T09:25:27.065Z,92.00
2022-08-19T09:28:02.743Z,83.50
2022-08-19T09:30:33.784Z,88.40
2022-08-19T09:33:00.834Z,88.85
2022-08-19T09:35:32.270Z,87.30
2022-08-19T09:38:16.716Z,87.88
2022-08-19T09:40:43.191Z,97.05
2022-08-19T09:43:13.163Z,97.18
2022-08-19T09:45:40.423Z,91.68
2022-08-19T09:48:07.115Z,96.15
2022-08-19T09:50:35.910Z,98.05
2022-08-19T09:53:02.416Z,90.20
2022-08-19T09:55:31.811Z,99.93
2022-08-19T09:58:02.913Z,90.75
2022-08-19T10:00:31.075Z,91.32
2022-08-19T10:02:57.577Z,90.55
2022-08-19T10:05:42.760Z,89.13
2022-08-19T10:08:13.826Z,89.10
2022-08-19T10:10:46.201Z,89.17
2022-08-19T10:13:23.257Z,85.85
2022-08-19T10:15:51.586Z,90.03
2022-08-19T10:18:20.437Z,86.65
2022-08-19T10:20:51.822Z,89.40
2022-08-19T10:23:21.760Z,84.03
2022-08-19T10:25:49.697Z,82.10
2022-08-19T10:28:16.365Z,86.68
2022-08-19T10:30:46.445Z,69.78
2022-08-19T10:33:14.903Z,73.60
2022-08-19T10:35:42.710Z,76.82
2022-08-19T10:38:31.384Z,75.60
2022-08-19T10:40:59.298Z,68.95
2022-08-19T10:43:25.904Z,55.58
2022-08-19T10:46:00.111Z,49.45
2022-08-19T10:48:26.821Z,49.53
2022-08-19T10:51:22.955Z,39.30
2022-08-19T10:53:51.451Z,41.90
2022-08-19T10:56:37.083Z,38.55
2022-08-19T10:59:05.435Z,35.17
2022-08-19T11:01:34.194Z,27.75
2022-08-19T11:04:02.601Z,40.40
2022-08-19T11:06:30.229Z,43.72
2022-08-19T11:08:57.038Z,37.33
2022-08-19T11:11:23.873Z,31.75
2022-08-19T11:13:51.009Z,39.35
2022-08-19T11:16:20.957Z,44.85
2022-08-19T11:18:50.547Z,43.72
2022-08-19T11:21:23.988Z,43.33
2022-08-19T11:23:56.449Z,51.28
2022-08-19T11:26:24.052Z,56.70
2022-08-19T11:28:55.523Z,57.92
2022-08-19T11:31:29.097Z,49.63
2022-08-19T11:34:02.434Z,46.67
2022-08-19T11:36:29.721Z,49.92
2022-08-19T11:38:56.687Z,47.53
2022-08-19T11:41:24.322Z,52.60
2022-08-19T11:43:53.254Z,46.55
2022-08-19T11:46:19.714Z,41.40
2022-08-19T11:48:46.249Z,44.85
2022-08-19T11:51:16.787Z,41.65
2022-08-19T11:53:43.350Z,33.67
2022-08-19T11:56:10.203Z,41.30
2022-08-19T11:58:37.563Z,41.47
2022-08-19T12:01:16.833Z,42.13
2022-08-19T12:03:47.938Z,51.17
2022-08-19T12:06:24.888Z,44.83
2022-08-19T12:08:51.370Z,41.65
2022-08-19T12:11:17.886Z,42.05
2022-08-19T12:13:48.606Z,41.00
2022-08-19T12:16:21.596Z,47.75
2022-08-19T12:18:48.070Z,38.92
2022-08-19T12:21:15.792Z,46.80
2022-08-19T12:23:45.865Z,36.90
2022-08-19T12:26:12.874Z,37.58
2022-08-19T12:28:39.719Z,37.33
2022-08-19T12:31:06.724Z,40.85
2022-08-19T12:33:33.330Z,43.78
2022-08-19T12:36:05.467Z,36.28
2022-08-19T12:38:33.183Z,32.90
2022-08-19T12:41:00.498Z,35.78
2022-08-19T12:43:27.870Z,24.55
2022-08-19T12:45:54.335Z,24.20
2022-08-19T12:48:33.558Z,25.90
2022-08-19T12:51:07.184Z,34.58
2022-08-19T12:53:33.634Z,43.08
2022-08-19T12:56:01.253Z,34.72
2022-08-19T12:58:29.215Z,40.35
2022-08-19T13:00:56.025Z,34.92
2022-08-19T13:03:30.026Z,33.78
2022-08-19T13:05:56.902Z,28.85
2022-08-19T13:08:23.653Z,31.45
2022-08-19T13:10:51.449Z,31.17
2022-08-19T13:13:17.934Z,33.50
2022-08-19T13:15:46.178Z,28.58
2022-08-19T13:18:15.387Z,37.05
2022-08-19T13:20:42.077Z,38.05
2022-08-19T13:23:18.929Z,30.15
2022-08-19T13:25:45.374Z,28.10
2022-08-19T13:28:14.739Z,22.60
2022-08-19T13:31:01.639Z,26.17
2022-08-19T13:33:30.176Z,27.52
2022-08-19T13:36:01.580Z,25.98
2022-08-19T13:38:28.870Z,32.88
2022-08-19T13:40:56.681Z,28.63
2022-08-19T13:43:27.466Z,32.00
2022-08-19T13:45:56.840Z,30.50
2022-08-19T13:48:24.630Z,31.20
2022-08-19T13:50:51.201Z,31.25
2022-08-19T13:53:18.530Z,31.60
2022-08-19T13:55:45.581Z,35.63
2022-08-19T13:58:13.200Z,39.40
2022-08-19T14:00:44.701Z,36.55
2022-08-19T14:03:12.194Z,37.67
2022-08-19T14:05:39.253Z,40.35
2022-08-19T14:08:06.210Z,50.95
2022-08-19T14:10:33.348Z,37.33
2022-08-19T14:13:02.617Z,39.83
2022-08-19T14:15:30.180Z,41.25
2022-08-19T14:17:57.436Z,37.67
2022-08-19T14:20:26.034Z,37.78
2022-08-19T14:22:53.628Z,35.40
2022-08-19T14:25:23.805Z,43.92
2022-08-19T14:27:50.929Z,41.70
2022-08-19T14:30:31.366Z,42.97
2022-08-19T14:32:59.804Z,41.30
2022-08-19T14:35:28.181Z,33.13
2022-08-19T14:37:56.025Z,31.55
2022-08-19T14:40:26.828Z,26.67
2022-08-19T14:43:05.112Z,31.85
2022-08-19T14:45:33.895Z,24.63
2022-08-19T14:48:01.205Z,29.95
2022-08-19T14:50:28.777Z,23.75
2022-08-19T14:53:09.351Z,25.27
2022-08-19T14:55:43.026Z,20.48
2022-08-19T14:58:09.840Z,22.90
2022-08-19T15:00:56.612Z,19.75
2022-08-19T15:03:23.141Z,21.30
2022-08-19T15:05:49.573Z,18.05
2022-08-19T15:08:16.052Z,17.40
2022-08-19T15:10:42.567Z,12.30
2022-08-19T15:13:10.815Z,11.88
2022-08-19T15:15:39.939Z,10.10
2022-08-19T15:18:06.412Z,10.23
2022-08-19T15:20:32.902Z,12.32
2022-08-19T15:23:02.294Z,9.90
2022-08-19T15:25:29.083Z,9.48
2022-08-19T15:27:56.080Z,12.23
2022-08-19T15:30:25.199Z,14.50
2022-08-19T15:32:53.423Z,17.15
2022-08-19T15:35:21.218Z,15.35
2022-08-19T15:37:53.134Z,12.32
2022-08-19T15:40:21.031Z,12.07
2022-08-19T15:42:49.626Z,16.63
2022-08-19T15:45:18.001Z,16.98
2022-08-19T15:47:44.801Z,19.60
2022-08-19T15:50:23.654Z,19.58
2022-08-19T15:52:53.621Z,20.58
2022-08-19T15:55:32.802Z,15.40
2022-08-19T15:58:28.869Z,17.38
2022-08-19T16:01:20.607Z,16.23
2022-08-19T16:04:14.322Z,18.33
2022-08-19T16:06:43.846Z,25.13
2022-08-19T16:09:10.397Z,21.38
2022-08-19T16:11:39.931Z,20.20
2022-08-19T16:14:09.402Z,14.52
2022-08-19T16:16:37.504Z,12.93
2022-08-19T16:19:10.255Z,14.80
2022-08-19T16:21:41.602Z,16.35
2022-08-19T16:24:11.985Z,19.63
2022-08-19T16:26:39.574Z,19.48
2022-08-19T16:29:08.763Z,14.93
2022-08-19T16:31:36.713Z,16.92
2022-08-19T16:34:04.267Z,13.70
2022-08-19T16:36:31.218Z,19.65
2022-08-19T16:38:58.418Z,21.08
2022-08-19T16:41:24.962Z,24.27
2022-08-19T16:43:52.452Z,22.05
2022-08-19T16:46:23.382Z,23.33
2022-08-19T16:48:54.090Z,22.17
2022-08-19T16:51:22.576Z,19.95
2022-08-19T16:53:49.637Z,25.20
2022-08-19T16:56:16.263Z,18.77
2022-08-19T16:58:43.167Z,26.85
2022-08-19T17:01:13.219Z,21.35
2022-08-19T17:03:40.171Z,21.25
2022-08-19T17:06:18.496Z,18.48
2022-08-19T17:08:49.930Z,19.17
2022-08-19T17:11:18.821Z,23.40
2022-08-19T17:13:47.738Z,25.50
2022-08-19T17:16:24.510Z,27.13
2022-08-19T17:18:52.881Z,20.33
2022-08-19T17:21:21.250Z,21.77
2022-08-19T17:23:48.682Z,22.08
2022-08-19T17:26:18.396Z,19.45
2022-08-19T17:28:49.378Z,20.77
2022-08-19T17:31:17.509Z,28.13
2022-08-19T17:33:48.214Z,52.20
2022-08-19T17:36:17.235Z,40.08
2022-08-19T17:38:44.419Z,35.60
2022-08-19T17:41:11.643Z,44.28
2022-08-19T17:43:43.144Z,23.50
2022-08-19T17:46:12.937Z,21.05
2022-08-19T17:48:48.386Z,27.00
2022-08-19T17:51:35.593Z,25.33
2022-08-19T17:54:04.286Z,19.83
2022-08-19T17:56:30.729Z,18.80
2022-08-19T17:59:00.321Z,17.30
2022-08-19T18:01:34.146Z,18.05
2022-08-19T18:04:14.606Z,14.20
2022-08-19T18:06:41.650Z,12.73
2022-08-19T18:09:13.251Z,12.82
2022-08-19T18:11:39.810Z,16.48
2022-08-19T18:14:06.302Z,15.18
2022-08-19T18:16:32.738Z,13.68
2022-08-19T18:18:59.311Z,10.48
2022-08-19T18:21:31.474Z,11.45
2022-08-19T18:24:01.994Z,11.40
2022-08-19T18:26:30.189Z,14.30
2022-08-19T18:28:57.246Z,12.45
2022-08-19T18:31:24.092Z,12.27
2022-08-19T18:33:52.582Z,17.20
2022-08-19T18:36:37.359Z,15.52
2022-08-19T18:39:25.260Z,13.43
2022-08-19T18:42:14.384Z,13.82
2022-08-19T18:45:00.017Z,16.20
2022-08-19T18:47:44.994Z,13.02
2022-08-19T18:50:12.955Z,21.45
2022-08-19T18:52:40.628Z,17.33
2022-08-19T18:55:07.966Z,17.88
2022-08-19T18:57:34.894Z,21.30
2022-08-19T19:00:03.454Z,19.45
2022-08-19T19:02:38.583Z,22.73
2022-08-19T19:05:07.592Z,18.60
2022-08-19T19:07:35.310Z,25.55
2022-08-19T19:10:02.106Z,17.48
2022-08-19T19:12:29.425Z,17.48
2022-08-19T19:14:57.920Z,16.55
2022-08-19T19:17:27.923Z,22.83
2022-08-19T19:19:54.440Z,19.20
2022-08-19T19:22:22.519Z,17.80
2022-08-19T19:24:50.601Z,21.00
2022-08-19T19:27:20.271Z,17.83
2022-08-19T19:29:51.690Z,17.77
2022-08-19T19:32:24.112Z,19.58
2022-08-19T19:34:50.771Z,18.67
2022-08-19T19:37:17.841Z,18.63
2022-08-19T19:39:46.646Z,16.30
2022-08-19T19:42:20.547Z,16.42
2022-08-19T19:44:50.357Z,17.00
2022-08-19T19:47:18.654Z,24.67
2022-08-19T19:50:15.994Z,22.17
2022-08-19T19:52:38.445Z,26.23
2022-08-19T19:55:05.586Z,21.52
2022-08-19T19:57:32.038Z,24.65
2022-08-19T19:59:59.321Z,23.83
2022-08-19T20:02:25.924Z,28.05
2022-08-19T20:04:53.920Z,27.40
2022-08-19T20:07:40.337Z,30.73
2022-08-19T20:10:07.061Z,30.60
2022-08-19T20:12:34.281Z,27.50
2022-08-19T20:15:00.834Z,27.33
2022-08-19T20:17:27.389Z,30.35
2022-08-19T20:19:54.217Z,30.00
2022-08-19T20:22:20.778Z,33.55
2022-08-19T20:24:48.350Z,30.77
2022-08-19T20:27:14.827Z,41.10
2022-08-19T20:29:44.458Z,40.28
2022-08-19T20:32:12.594Z,42.25
2022-08-19T20:34:40.565Z,49.10
2022-08-19T20:37:09.034Z,47.67
2022-08-19T20:39:35.659Z,42.58
2022-08-19T20:42:02.221Z,48.42
2022-08-19T20:44:28.731Z,49.92
2022-08-19T20:46:58.430Z,49.50
2022-08-19T20:49:27.807Z,53.33
2022-08-19T20:51:58.281Z,45.17
2022-08-19T20:54:25.859Z,47.45
2022-08-19T20:56:52.883Z,45.13
2022-08-19T20:59:20.390Z,42.22
2022-08-19T21:01:48.326Z,49.53
2022-08-19T21:04:14.894Z,60.88
2022-08-19T21:06:45.296Z,53.72
2022-08-19T21:09:13.466Z,47.55
2022-08-19T21:11:39.945Z,56.88
2022-08-19T21:14:06.432Z,56.53
2022-08-19T21:16:33.819Z,53.55
2022-08-19T21:19:00.495Z,50.28
2022-08-19T21:21:27.290Z,51.40
2022-08-19T21:23:53.757Z,44.65
2022-08-19T21:26:20.485Z,46.58
2022-08-19T21:28:47.013Z,50.28
2022-08-19T21:31:15.059Z,42.92
2022-08-19T21:33:41.740Z,37.92
2022-08-19T21:36:08.763Z,38.20
2022-08-19T21:38:35.880Z,43.40
2022-08-19T21:41:05.811Z,37.13
2022-08-19T21:43:33.149Z,40.30
2022-08-19T21:45:59.579Z,37.17
2022-08-19T21:48:26.024Z,40.78
2022-08-19T21:50:52.547Z,44.10
2022-08-19T21:53:19.311Z,34.63
2022-08-19T21:55:53.073Z,43.95
2022-08-19T21:58:29.845Z,39.35
2022-08-19T22:00:58.924Z,38.45
2022-08-19T22:03:26.168Z,38.22
2022-08-19T22:05:52.907Z,38.72
2022-08-19T22:08:19.378Z,35.03
2022-08-19T22:10:46.586Z,39.63
2022-08-19T22:13:13.451Z,32.53
2022-08-19T22:15:42.173Z,37.08
2022-08-19T22:18:08.634Z,32.80
2022-08-19T22:20:35.112Z,32.78
2022-08-19T22:23:04.755Z,33.67
2022-08-19T22:25:34.847Z,34.78
2022-08-19T22:28:03.911Z,34.80
2022-08-19T22:30:33.743Z,33.70
2022-08-19T22:33:04.195Z,30.98
2022-08-19T22:35:32.769Z,34.08
2022-08-19T22:37:59.862Z,33.08
2022-08-19T22:40:29.570Z,34.83
2022-08-19T22:43:17.592Z,32.28
2022-08-19T22:45:45.139Z,30.73
2022-08-19T22:48:14.462Z,31.67
2022-08-19T22:50:43.108Z,35.10
2022-08-19T22:53:10.282Z,37.35
2022-08-19T22:55:38.394Z,34.15
2022-08-19T22:58:05.695Z,28.65
2022-08-19T23:00:32.934Z,31.27
2022-08-19T23:02:59.903Z,29.35
2022-08-19T23:05:28.041Z,26.90
2022-08-19T23:07:57.197Z,37.60
2022-08-19T23:10:27.540Z,32.92
2022-08-19T23:12:56.958Z,30.77
2022-08-19T23:15:26.498Z,29.88
2022-08-19T23:17:54.994Z,29.92
2022-08-19T23:20:26.923Z,27.50
2022-08-19T23:22:55.040Z,25.35
2022-08-19T23:25:25.250Z,34.10
2022-08-19T23:28:10.837Z,26.20
2022-08-19T23:30:40.925Z,25.42
2022-08-19T23:33:25.279Z,27.00
2022-08-19T23:35:57.814Z,25.25
2022-08-19T23:38:25.334Z,21.60
2022-08-19T23:40:55.984Z,23.67
2022-08-19T23:43:25.049Z,24.95
2022-08-19T23:45:53.345Z,22.13
2022-08-19T23:48:24.266Z,26.08
2022-08-19T23:50:52.079Z,27.77
2022-08-19T23:53:19.533Z,28.20
2022-08-19T23:55:47.482Z,21.45
2022-08-19T23:58:15.493Z,20.88
